createdAt,value
2018-08-17T00:00:48.128Z,90.50
2018-08-17T00:03:15.752Z,90.70
2018-08-17T00:05:43.405Z,90.90
2018-08-17T00:08:11.075Z,90.80
2018-08-17T00:10:38.693Z,90.90
2018-08-17T00:13:11.209Z,91.10
2018-08-17T00:15:38.953Z,91.50
2018-08-17T00:18:06.673Z,91.70
2018-08-17T00:20:34.217Z,91.90
2018-08-17T00:23:02.001Z,91.60
2018-08-17T00:25:29.633Z,91.30
2018-08-17T00:27:57.245Z,91.50
2018-08-17T00:30:24.814Z,91.20
2018-08-17T00:32:55.461Z,91.20
2018-08-17T00:35:23.089Z,91.30
2018-08-17T00:37:50.652Z,91.30
2018-08-17T00:40:18.204Z,91.70
2018-08-17T00:42:45.809Z,91.90
2018-08-17T00:45:13.404Z,91.70
2018-08-17T00:47:41.005Z,91.80
2018-08-17T00:50:08.664Z,91.50
2018-08-17T00:52:36.254Z,91.50
2018-08-17T00:55:04.266Z,91.80
2018-08-17T00:57:31.902Z,92.00
2018-08-17T00:59:59.498Z,92.10
2018-08-17T01:02:27.201Z,92.10
2018-08-17T01:04:55.580Z,92.30
2018-08-17T01:07:23.629Z,92.50
2018-08-17T01:09:51.254Z,92.50
2018-08-17T01:12:18.840Z,92.40
2018-08-17T01:14:49.460Z,92.50
2018-08-17T01:17:17.073Z,92.40
2018-08-17T01:19:44.641Z,92.30
2018-08-17T01:22:12.774Z,92.30
2018-08-17T01:24:40.411Z,92.40
2018-08-17T01:27:11.030Z,92.30
2018-08-17T01:29:38.773Z,92.40
2018-08-17T01:32:06.445Z,92.60
2018-08-17T01:34:34.013Z,92.80
2018-08-17T01:37:01.577Z,93.00
2018-08-17T01:39:29.177Z,93.20
2018-08-17T01:41:59.673Z,93.40
2018-08-17T01:44:27.284Z,93.30
2018-08-17T01:46:54.920Z,93.30
2018-08-17T01:49:23.093Z,93.60
2018-08-17T01:51:50.684Z,93.90
2018-08-17T01:54:18.237Z,94.00
2018-08-17T01:56:45.915Z,94.00
2018-08-17T01:59:13.493Z,93.90
2018-08-17T02:01:41.061Z,94.20
2018-08-17T02:04:08.737Z,93.90
2018-08-17T02:06:36.323Z,93.90
2018-08-17T02:09:06.481Z,93.90
2018-08-17T02:11:34.096Z,93.90
2018-08-17T02:14:02.566Z,94.10
2018-08-17T02:16:30.269Z,94.20
2018-08-17T02:18:57.976Z,94.10
2018-08-17T02:21:25.593Z,94.20
2018-08-17T02:23:53.160Z,94.30
2018-08-17T02:26:20.853Z,94.40
2018-08-17T02:28:48.465Z,94.50
2018-08-17T02:31:16.051Z,94.60
2018-08-17T02:33:43.673Z,94.60
2018-08-17T02:36:11.245Z,94.80
2018-08-17T02:38:38.809Z,95.00
2018-08-17T02:41:06.496Z,95.30
2018-08-17T02:43:34.057Z,95.70
2018-08-17T02:46:01.648Z,96.20
2018-08-17T02:48:29.834Z,96.50
2018-08-17T02:50:57.419Z,96.90
2018-08-17T02:53:25.013Z,97.00
2018-08-17T02:55:52.565Z,97.00
2018-08-17T02:58:20.309Z,97.00
2018-08-17T03:00:47.873Z,96.90
2018-08-17T03:03:15.521Z,96.80
2018-08-17T03:05:43.181Z,96.90
2018-08-17T03:08:12.561Z,96.90
2018-08-17T03:10:40.190Z,96.80
2018-08-17T03:13:07.798Z,96.70
2018-08-17T03:15:35.408Z,96.50
2018-08-17T03:18:03.034Z,96.50
2018-08-17T03:20:30.656Z,96.30
2018-08-17T03:22:58.355Z,96.50
2018-08-17T03:25:25.970Z,96.20
2018-08-17T03:27:54.242Z,96.50
2018-08-17T03:30:21.873Z,96.40
2018-08-17T03:32:49.422Z,96.20
2018-08-17T03:35:17.862Z,96.40
2018-08-17T03:37:50.393Z,97.10
2018-08-17T03:40:18.617Z,97.10
2018-08-17T03:42:46.253Z,97.10
2018-08-17T03:45:13.993Z,97.60
2018-08-17T03:47:41.557Z,97.90
2018-08-17T03:50:10.024Z,97.50
2018-08-17T03:52:37.971Z,97.70
2018-08-17T03:55:05.737Z,97.90
2018-08-17T03:57:33.294Z,97.80
2018-08-17T04:00:00.981Z,98.00
2018-08-17T04:02:28.804Z,97.80
2018-08-17T04:04:56.568Z,97.70
2018-08-17T04:07:24.368Z,97.60
2018-08-17T04:09:51.964Z,97.40
2018-08-17T04:12:19.534Z,97.30
2018-08-17T04:14:47.121Z,97.30
2018-08-17T04:17:15.261Z,97.30
2018-08-17T04:19:44.213Z,97.20
2018-08-17T04:22:11.782Z,97.30
2018-08-17T04:24:39.376Z,96.90
2018-08-17T04:27:07.952Z,96.90
2018-08-17T04:29:36.113Z,97.00
2018-08-17T04:32:03.837Z,96.80
2018-08-17T04:34:31.609Z,96.70
2018-08-17T04:36:59.229Z,96.60
2018-08-17T04:39:26.852Z,96.60
2018-08-17T04:41:54.404Z,96.60
2018-08-17T04:44:22.793Z,96.80
2018-08-17T04:46:50.398Z,96.80
2018-08-17T04:49:18.966Z,96.70
2018-08-17T04:51:51.545Z,96.40
2018-08-17T04:54:19.180Z,96.60
2018-08-17T04:56:46.756Z,96.50
2018-08-17T04:59:14.329Z,96.60
2018-08-17T05:01:41.921Z,96.40
2018-08-17T05:04:09.472Z,96.30
2018-08-17T05:06:37.107Z,96.10
2018-08-17T05:09:06.192Z,96.20
2018-08-17T05:11:33.866Z,96.20
2018-08-17T05:14:01.538Z,95.80
2018-08-17T05:16:29.199Z,95.70
2018-08-17T05:18:57.024Z,95.30
2018-08-17T05:21:24.647Z,95.00
2018-08-17T05:23:52.281Z,94.80
2018-08-17T05:26:21.736Z,94.30
2018-08-17T05:28:49.381Z,94.10
2018-08-17T05:31:16.940Z,94.20
2018-08-17T05:33:44.578Z,94.00
2018-08-17T05:36:12.108Z,94.00
2018-08-17T05:38:40.233Z,94.20
2018-08-17T05:41:07.965Z,94.30
2018-08-17T05:43:35.542Z,95.10
2018-08-17T05:46:03.161Z,97.20
2018-08-17T05:48:31.089Z,98.60
2018-08-17T05:50:59.748Z,99.00
2018-08-17T05:53:28.312Z,99.30
2018-08-17T05:55:56.022Z,99.20
2018-08-17T05:58:25.075Z,99.90
2018-08-17T06:00:52.729Z,99.90
2018-08-17T06:03:20.369Z,99.90
2018-08-17T06:05:48.025Z,99.90
2018-08-17T06:08:15.686Z,99.90
2018-08-17T06:10:43.569Z,99.90
2018-08-17T06:13:11.149Z,99.90
2018-08-17T06:18:37.518Z,99.90
2018-08-17T06:21:05.314Z,99.90
2018-08-17T06:23:34.118Z,99.90
2018-08-17T06:26:02.213Z,99.90
2018-08-17T06:28:29.855Z,99.90
2018-08-17T06:30:57.529Z,99.90
2018-08-17T06:33:25.137Z,99.90
2018-08-17T06:35:52.693Z,99.90
2018-08-17T06:38:20.500Z,99.90
2018-08-17T06:40:48.233Z,99.90
2018-08-17T06:43:15.947Z,99.90
2018-08-17T06:45:43.662Z,99.90
2018-08-17T06:48:11.885Z,99.90
2018-08-17T06:50:39.500Z,99.90
2018-08-17T06:53:07.084Z,99.90
2018-08-17T06:55:37.675Z,99.90
2018-08-17T06:58:06.033Z,99.90
2018-08-17T07:00:33.697Z,99.90
2018-08-17T07:03:01.289Z,99.90
2018-08-17T07:05:28.852Z,99.90
2018-08-17T07:07:56.436Z,99.90
2018-08-17T07:10:24.929Z,99.90
2018-08-17T07:12:57.068Z,99.90
2018-08-17T07:15:24.791Z,99.90
2018-08-17T07:17:52.756Z,99.90
2018-08-17T07:20:20.341Z,99.90
2018-08-17T07:22:48.322Z,99.90
2018-08-17T07:25:16.062Z,99.90
2018-08-17T07:27:44.016Z,99.90
2018-08-17T07:30:11.610Z,99.90
2018-08-17T07:32:39.224Z,99.90
2018-08-17T07:35:08.344Z,99.90
2018-08-17T07:37:36.250Z,99.90
2018-08-17T07:40:05.819Z,99.90
2018-08-17T07:42:34.331Z,99.90
2018-08-17T07:45:02.041Z,99.90
2018-08-17T07:47:31.103Z,99.90
2018-08-17T07:49:59.133Z,99.90
2018-08-17T07:52:29.668Z,99.90
2018-08-17T07:55:00.344Z,99.90
2018-08-17T07:57:27.902Z,99.90
2018-08-17T07:59:55.749Z,99.90
2018-08-17T08:02:23.317Z,99.90
2018-08-17T08:04:51.037Z,99.90
2018-08-17T08:07:18.632Z,99.70
2018-08-17T08:09:46.236Z,99.80
2018-08-17T08:12:13.908Z,99.90
2018-08-17T08:14:41.570Z,99.90
2018-08-17T08:17:09.073Z,99.90
2018-08-17T08:19:37.357Z,99.90
2018-08-17T08:22:10.793Z,99.90
2018-08-17T08:24:39.010Z,99.90
2018-08-17T08:27:07.245Z,99.90
2018-08-17T08:29:34.936Z,99.70
2018-08-17T08:32:02.494Z,99.90
2018-08-17T08:34:30.156Z,99.90
2018-08-17T08:36:57.849Z,99.30
2018-08-17T08:39:25.488Z,99.90
2018-08-17T08:41:53.012Z,98.10
2018-08-17T08:44:20.561Z,98.80
2018-08-17T08:46:49.209Z,98.10
2018-08-17T08:49:16.848Z,97.70
2018-08-17T08:51:44.427Z,98.20
2018-08-17T08:54:12.017Z,98.70
2018-08-17T08:56:39.622Z,99.50
2018-08-17T08:59:07.726Z,98.00
2018-08-17T09:01:35.498Z,97.50
2018-08-17T09:04:03.094Z,96.00
2018-08-17T09:06:30.791Z,96.40
2018-08-17T09:09:00.309Z,96.10
2018-08-17T09:11:27.917Z,95.90
2018-08-17T09:13:55.777Z,97.00
2018-08-17T09:16:23.429Z,95.00
2018-08-17T09:18:51.073Z,94.50
2018-08-17T09:21:18.808Z,96.50
2018-08-17T09:23:51.485Z,96.10
2018-08-17T09:26:19.121Z,95.50
2018-08-17T09:28:46.749Z,96.20
2018-08-17T09:31:14.346Z,97.00
2018-08-17T09:33:41.909Z,95.90
2018-08-17T09:36:09.713Z,96.00
2018-08-17T09:38:37.212Z,95.90
2018-08-17T09:41:05.094Z,95.20
2018-08-17T09:43:32.654Z,94.00
2018-08-17T09:46:00.229Z,94.20
2018-08-17T09:48:27.791Z,96.30
2018-08-17T09:50:55.397Z,95.50
2018-08-17T09:53:27.037Z,95.40
2018-08-17T09:55:54.601Z,95.10
2018-08-17T09:58:22.250Z,93.80
2018-08-17T10:00:55.402Z,93.80
2018-08-17T10:03:28.646Z,93.90
2018-08-17T10:06:01.838Z,93.50
2018-08-17T10:08:35.244Z,94.00
2018-08-17T10:11:04.126Z,95.80
2018-08-17T10:13:31.709Z,95.40
2018-08-17T10:15:59.665Z,96.90
2018-08-17T10:18:35.751Z,96.80
2018-08-17T10:21:04.200Z,96.40
2018-08-17T10:23:31.658Z,96.60
2018-08-17T10:26:02.382Z,96.70
2018-08-17T10:28:29.973Z,97.20
2018-08-17T10:30:57.543Z,96.80
2018-08-17T10:33:25.176Z,97.00
2018-08-17T10:38:30.990Z,96.50
2018-08-17T10:40:58.613Z,95.90
2018-08-17T10:43:26.240Z,95.40
2018-08-17T10:45:53.800Z,95.50
2018-08-17T10:48:24.788Z,96.20
2018-08-17T10:50:56.057Z,96.80
2018-08-17T10:53:26.078Z,95.30
2018-08-17T10:55:53.639Z,95.20
2018-08-17T10:58:21.335Z,94.80
2018-08-17T11:00:54.955Z,95.00
2018-08-17T11:03:22.638Z,95.10
2018-08-17T11:05:50.308Z,95.40
2018-08-17T11:08:17.929Z,95.30
2018-08-17T11:10:47.497Z,95.10
2018-08-17T11:13:15.331Z,94.90
2018-08-17T11:15:42.906Z,95.50
2018-08-17T11:18:10.474Z,95.10
2018-08-17T11:20:38.045Z,95.50
2018-08-17T11:23:05.777Z,95.40
2018-08-17T11:25:33.325Z,94.30
2018-08-17T11:28:03.973Z,94.50
2018-08-17T11:30:33.670Z,94.00
2018-08-17T11:33:01.245Z,94.50
2018-08-17T11:35:29.256Z,94.70
2018-08-17T11:37:57.169Z,94.60
2018-08-17T11:40:24.973Z,94.60
2018-08-17T11:42:52.782Z,94.30
2018-08-17T11:45:25.929Z,94.80
2018-08-17T11:47:54.237Z,94.50
2018-08-17T11:50:23.057Z,95.20
2018-08-17T11:52:53.135Z,94.60
2018-08-17T11:55:21.509Z,94.50
2018-08-17T11:57:55.950Z,95.10
2018-08-17T12:00:23.833Z,95.30
2018-08-17T12:02:51.499Z,96.00
2018-08-17T12:05:19.217Z,95.90
2018-08-17T12:07:47.279Z,95.70
2018-08-17T12:10:14.914Z,96.10
2018-08-17T12:12:43.264Z,95.40
2018-08-17T12:15:11.622Z,95.70
2018-08-17T12:17:39.273Z,95.90
2018-08-17T12:20:07.049Z,95.30
2018-08-17T12:22:34.621Z,95.10
2018-08-17T12:25:03.218Z,95.20
2018-08-17T12:27:34.724Z,95.60
2018-08-17T12:30:04.049Z,96.00
2018-08-17T12:32:31.657Z,96.30
2018-08-17T12:34:59.432Z,95.80
2018-08-17T12:37:27.007Z,95.90
2018-08-17T12:39:54.570Z,95.60
2018-08-17T12:42:22.295Z,95.00
2018-08-17T12:44:49.889Z,94.00
2018-08-17T12:47:17.448Z,93.90
2018-08-17T12:49:45.080Z,94.30
2018-08-17T12:52:12.698Z,93.60
2018-08-17T12:54:45.053Z,93.10
2018-08-17T12:57:12.640Z,92.90
2018-08-17T12:59:40.210Z,92.10
2018-08-17T13:02:07.859Z,91.60
2018-08-17T13:04:35.462Z,91.20
2018-08-17T13:07:03.424Z,91.50
2018-08-17T13:09:31.095Z,91.40
2018-08-17T13:12:00.668Z,91.30
2018-08-17T13:14:28.730Z,90.40
2018-08-17T13:16:58.817Z,90.80
2018-08-17T13:19:26.527Z,90.30
2018-08-17T13:21:54.230Z,90.30
2018-08-17T13:24:21.835Z,90.30
2018-08-17T13:26:50.243Z,90.10
2018-08-17T13:29:32.424Z,90.00
2018-08-17T13:31:59.998Z,89.60
2018-08-17T13:34:28.163Z,87.70
2018-08-17T13:36:57.738Z,83.30
2018-08-17T13:39:26.033Z,80.10
2018-08-17T13:41:53.633Z,77.20
2018-08-17T13:44:21.193Z,76.10
2018-08-17T13:46:48.797Z,73.60
2018-08-17T13:49:16.454Z,73.60
2018-08-17T13:51:44.457Z,72.30
2018-08-17T13:54:12.049Z,72.30
2018-08-17T13:56:39.633Z,73.50
2018-08-17T13:59:07.361Z,73.60
2018-08-17T14:01:35.020Z,68.00
2018-08-17T14:04:02.645Z,67.70
2018-08-17T14:06:30.361Z,61.90
2018-08-17T14:08:57.945Z,59.20
2018-08-17T14:11:27.316Z,56.90
2018-08-17T14:13:54.899Z,55.90
2018-08-17T14:16:22.517Z,56.30
2018-08-17T14:18:50.166Z,57.30
2018-08-17T14:21:18.005Z,57.40
2018-08-17T14:23:45.913Z,59.70
2018-08-17T14:26:13.489Z,63.80
2018-08-17T14:28:41.211Z,61.00
2018-08-17T14:31:08.854Z,56.10
2018-08-17T14:33:36.828Z,57.00
2018-08-17T14:36:04.833Z,58.70
2018-08-17T14:38:34.633Z,56.40
2018-08-17T14:41:03.659Z,53.20
2018-08-17T14:43:32.027Z,54.90
2018-08-17T14:46:00.277Z,53.80
2018-08-17T14:48:28.052Z,51.50
2018-08-17T14:50:55.807Z,52.20
2018-08-17T14:53:23.821Z,50.40
2018-08-17T14:55:51.470Z,51.40
2018-08-17T14:58:19.147Z,51.70
2018-08-17T15:00:46.767Z,48.00
2018-08-17T15:03:14.368Z,46.00
2018-08-17T15:05:41.953Z,43.90
2018-08-17T15:08:09.541Z,42.20
2018-08-17T15:10:37.133Z,41.10
2018-08-17T15:13:06.581Z,41.20
2018-08-17T15:15:34.321Z,41.70
2018-08-17T15:18:01.976Z,42.40
2018-08-17T15:20:29.685Z,47.60
2018-08-17T15:22:57.377Z,49.80
2018-08-17T15:25:25.153Z,52.70
2018-08-17T15:27:53.692Z,50.80
2018-08-17T15:30:21.388Z,43.90
2018-08-17T15:32:49.002Z,42.10
2018-08-17T15:35:16.657Z,41.90
2018-08-17T15:37:44.276Z,40.50
2018-08-17T15:40:16.796Z,39.50
2018-08-17T15:42:44.357Z,39.30
2018-08-17T15:45:12.040Z,36.80
2018-08-17T15:47:39.653Z,37.20
2018-08-17T15:50:12.077Z,37.50
2018-08-17T15:52:39.920Z,36.90
2018-08-17T15:55:07.645Z,39.90
2018-08-17T15:57:35.338Z,41.60
2018-08-17T16:00:03.322Z,42.30
2018-08-17T16:02:31.048Z,45.80
2018-08-17T16:05:02.748Z,45.00
2018-08-17T16:07:30.382Z,44.30
2018-08-17T16:09:58.572Z,42.30
2018-08-17T16:12:27.089Z,41.80
2018-08-17T16:14:54.688Z,40.00
2018-08-17T16:17:22.373Z,39.40
2018-08-17T16:19:49.962Z,39.20
2018-08-17T16:22:17.790Z,39.70
2018-08-17T16:24:46.092Z,43.70
2018-08-17T16:27:13.712Z,48.60
2018-08-17T16:29:41.333Z,47.90
2018-08-17T16:32:08.953Z,46.60
2018-08-17T16:34:37.130Z,46.00
2018-08-17T16:37:04.705Z,46.80
2018-08-17T16:39:38.770Z,48.00
2018-08-17T16:42:06.370Z,49.60
2018-08-17T16:44:33.982Z,48.90
2018-08-17T16:47:01.701Z,47.50
2018-08-17T16:49:29.383Z,44.10
2018-08-17T16:51:57.008Z,43.50
2018-08-17T16:54:24.691Z,42.50
2018-08-17T16:56:52.221Z,41.90
2018-08-17T16:59:19.773Z,41.70
2018-08-17T17:01:47.445Z,42.90
2018-08-17T17:04:15.141Z,43.30
2018-08-17T17:06:42.754Z,39.50
2018-08-17T17:09:10.500Z,38.20
2018-08-17T17:11:38.112Z,37.30
2018-08-17T17:14:05.795Z,36.60
2018-08-17T17:16:39.126Z,36.20
2018-08-17T17:19:14.239Z,36.20
2018-08-17T17:21:43.344Z,34.90
2018-08-17T17:24:12.014Z,36.50
2018-08-17T17:26:39.816Z,35.20
2018-08-17T17:29:07.525Z,35.00
2018-08-17T17:31:35.365Z,36.20
2018-08-17T17:34:03.114Z,37.70
2018-08-17T17:36:30.740Z,39.80
2018-08-17T17:38:58.296Z,41.30
2018-08-17T17:41:27.442Z,42.70
2018-08-17T17:43:55.038Z,44.20
2018-08-17T17:46:22.649Z,45.20
2018-08-17T17:48:50.245Z,45.10
2018-08-17T17:51:17.844Z,44.80
2018-08-17T17:53:45.417Z,45.40
2018-08-17T17:56:13.241Z,45.80
2018-08-17T17:58:40.796Z,47.50
2018-08-17T18:01:09.494Z,48.80
2018-08-17T18:03:37.220Z,50.20
2018-08-17T18:06:07.299Z,51.70
2018-08-17T18:08:35.005Z,53.30
2018-08-17T18:11:02.821Z,55.20
2018-08-17T18:13:31.233Z,55.70
2018-08-17T18:15:58.941Z,56.70
2018-08-17T18:18:26.572Z,58.10
2018-08-17T18:20:54.281Z,60.00
2018-08-17T18:23:21.972Z,60.90
2018-08-17T18:25:49.691Z,61.50
2018-08-17T18:28:17.403Z,63.20
2018-08-17T18:30:45.064Z,63.80
2018-08-17T18:33:12.645Z,64.60
2018-08-17T18:35:40.553Z,65.30
2018-08-17T18:38:08.293Z,65.60
2018-08-17T18:40:35.942Z,66.90
2018-08-17T18:43:07.433Z,67.60
2018-08-17T18:45:35.073Z,68.90
2018-08-17T18:48:02.721Z,69.00
2018-08-17T18:50:30.390Z,70.00
2018-08-17T18:52:58.014Z,70.20
2018-08-17T18:55:25.610Z,71.00
2018-08-17T18:57:53.213Z,71.60
2018-08-17T19:00:21.306Z,72.60
2018-08-17T19:02:48.961Z,72.30
2018-08-17T19:05:17.553Z,73.40
2018-08-17T19:07:45.658Z,73.80
2018-08-17T19:10:13.728Z,74.90
2018-08-17T19:12:45.513Z,74.60
2018-08-17T19:15:13.178Z,75.50
2018-08-17T19:17:41.441Z,76.20
2018-08-17T19:20:11.146Z,77.80
2018-08-17T19:22:41.168Z,77.50
2018-08-17T19:25:09.895Z,77.20
2018-08-17T19:27:38.344Z,77.60
2018-08-17T19:30:22.204Z,77.60
2018-08-17T19:32:52.261Z,78.90
2018-08-17T19:35:19.925Z,77.90
2018-08-17T19:37:48.004Z,78.80
2018-08-17T19:40:15.574Z,80.30
2018-08-17T19:42:43.907Z,80.10
2018-08-17T19:45:11.558Z,80.90
2018-08-17T19:47:40.741Z,81.80
2018-08-17T19:50:08.484Z,82.10
2018-08-17T19:52:36.062Z,82.80
2018-08-17T19:55:04.261Z,83.10
2018-08-17T19:57:31.829Z,83.30
2018-08-17T19:59:59.413Z,84.00
2018-08-17T20:02:26.973Z,84.80
2018-08-17T20:04:54.601Z,85.50
2018-08-17T20:07:22.269Z,85.40
2018-08-17T20:09:49.892Z,86.00
2018-08-17T20:12:17.497Z,85.30
2018-08-17T20:14:45.156Z,85.00
2018-08-17T20:17:12.721Z,85.80
2018-08-17T20:19:46.295Z,84.40
2018-08-17T20:22:16.929Z,84.00
2018-08-17T20:24:45.203Z,85.50
2018-08-17T20:27:12.780Z,84.90
2018-08-17T20:29:40.497Z,85.50
2018-08-17T20:32:08.185Z,84.90
2018-08-17T20:34:40.537Z,84.90
2018-08-17T20:37:08.453Z,85.90
2018-08-17T20:39:37.900Z,84.50
2018-08-17T20:42:05.925Z,84.60
2018-08-17T20:44:33.661Z,85.00
2018-08-17T20:47:01.267Z,85.40
2018-08-17T20:49:28.869Z,84.40
2018-08-17T20:52:02.321Z,83.80
2018-08-17T20:54:30.556Z,84.40
2018-08-17T20:56:58.661Z,84.40
2018-08-17T20:59:26.293Z,84.90
2018-08-17T21:01:54.005Z,84.50
2018-08-17T21:04:21.576Z,85.10
2018-08-17T21:06:49.452Z,84.30
2018-08-17T21:09:17.025Z,84.90
2018-08-17T21:11:47.033Z,85.20
2018-08-17T21:14:14.649Z,85.20
2018-08-17T21:16:42.338Z,84.90
2018-08-17T21:19:09.969Z,85.90
2018-08-17T21:21:37.609Z,85.00
2018-08-17T21:24:05.189Z,85.30
2018-08-17T21:26:33.068Z,85.60
2018-08-17T21:29:01.804Z,85.80
2018-08-17T21:31:29.488Z,86.20
2018-08-17T21:33:57.533Z,86.40
2018-08-17T21:36:25.122Z,86.10
2018-08-17T21:39:09.646Z,86.70
2018-08-17T21:41:38.577Z,87.30
2018-08-17T21:44:08.053Z,87.80
2018-08-17T21:46:35.656Z,87.20
2018-08-17T21:49:03.273Z,87.20
2018-08-17T21:51:33.025Z,86.90
2018-08-17T21:54:01.051Z,87.20
2018-08-17T21:56:28.605Z,86.80
2018-08-17T21:58:57.289Z,87.20
2018-08-17T22:01:24.910Z,87.40
2018-08-17T22:03:52.530Z,88.00
2018-08-17T22:06:20.121Z,88.40
2018-08-17T22:08:47.760Z,88.60
2018-08-17T22:11:35.039Z,88.70
2018-08-17T22:14:02.900Z,89.10
2018-08-17T22:16:31.265Z,89.90
2018-08-17T22:18:58.955Z,90.20
2018-08-17T22:21:27.573Z,90.50
2018-08-17T22:23:55.414Z,90.70
2018-08-17T22:26:27.101Z,90.80
2018-08-17T22:28:54.686Z,91.10
2018-08-17T22:31:34.702Z,91.10
2018-08-17T22:34:02.257Z,91.20
2018-08-17T22:36:31.214Z,91.10
2018-08-17T22:39:01.779Z,91.30
2018-08-17T22:41:33.522Z,91.60
2018-08-17T22:44:02.526Z,91.80
2018-08-17T22:46:30.239Z,91.70
2018-08-17T22:48:58.179Z,91.90
2018-08-17T22:51:28.481Z,92.20
2018-08-17T22:53:56.077Z,92.20
2018-08-17T22:56:23.776Z,92.50
2018-08-17T22:58:51.300Z,92.50
2018-08-17T23:01:20.186Z,92.40
2018-08-17T23:03:52.936Z,92.40
2018-08-17T23:06:22.679Z,92.40
2018-08-17T23:08:50.504Z,92.40
2018-08-17T23:11:32.173Z,92.30
2018-08-17T23:14:04.189Z,92.40
2018-08-17T23:16:31.749Z,92.70
2018-08-17T23:18:59.369Z,92.80
2018-08-17T23:21:28.138Z,92.90
2018-08-17T23:26:30.852Z,93.00
2018-08-17T23:28:58.776Z,93.40
2018-08-17T23:31:26.470Z,93.60
2018-08-17T23:33:54.294Z,93.50
2018-08-17T23:36:21.924Z,93.70
2018-08-17T23:38:50.726Z,93.80
2018-08-17T23:41:18.589Z,94.10
2018-08-17T23:43:46.217Z,94.10
2018-08-17T23:46:14.249Z,94.20
2018-08-17T23:48:43.051Z,94.10
2018-08-17T23:51:10.746Z,94.00
2018-08-17T23:53:39.229Z,93.90
2018-08-17T23:56:06.942Z,93.90
2018-08-17T23:58:34.524Z,93.90
